sensor_id;sensor_type;location;lat;lon;timestamp;P1;durP1;ratioP1;P2;durP2;ratioP2
41799;SDS011;27468;47.460;19.034;2023-01-31T00:00:16;5.93;;;3.50;;
41799;SDS011;27468;47.460;19.034;2023-01-31T00:02:41;5.77;;;3.60;;
41799;SDS011;27468;47.460;19.034;2023-01-31T00:05:07;5.60;;;3.40;;
41799;SDS011;27468;47.460;19.034;2023-01-31T00:07:33;5.13;;;3.40;;
41799;SDS011;27468;47.460;19.034;2023-01-31T00:09:58;5.60;;;3.40;;
41799;SDS011;27468;47.460;19.034;2023-01-31T00:12:23;5.93;;;3.67;;
41799;SDS011;27468;47.460;19.034;2023-01-31T00:14:49;5.57;;;3.50;;
41799;SDS011;27468;47.460;19.034;2023-01-31T00:17:14;4.60;;;2.27;;
41799;SDS011;27468;47.460;19.034;2023-01-31T00:19:39;3.53;;;2.53;;
41799;SDS011;27468;47.460;19.034;2023-01-31T00:22:05;4.83;;;2.50;;
41799;SDS011;27468;47.460;19.034;2023-01-31T00:24:30;4.67;;;2.63;;
41799;SDS011;27468;47.460;19.034;2023-01-31T00:26:56;4.23;;;2.27;;
41799;SDS011;27468;47.460;19.034;2023-01-31T00:29:22;4.80;;;2.37;;
41799;SDS011;27468;47.460;19.034;2023-01-31T00:31:48;4.73;;;2.37;;
41799;SDS011;27468;47.460;19.034;2023-01-31T00:34:14;5.00;;;2.17;;
41799;SDS011;27468;47.460;19.034;2023-01-31T00:36:39;2.10;;;1.73;;
41799;SDS011;27468;47.460;19.034;2023-01-31T00:39:05;3.73;;;2.07;;
41799;SDS011;27468;47.460;19.034;2023-01-31T00:41:32;3.87;;;2.10;;
41799;SDS011;27468;47.460;19.034;2023-01-31T00:43:58;3.73;;;1.83;;
41799;SDS011;27468;47.460;19.034;2023-01-31T00:46:23;1.90;;;1.40;;
41799;SDS011;27468;47.460;19.034;2023-01-31T00:48:49;4.97;;;2.13;;
41799;SDS011;27468;47.460;19.034;2023-01-31T00:51:15;4.47;;;2.43;;
41799;SDS011;27468;47.460;19.034;2023-01-31T00:53:41;2.50;;;1.73;;
41799;SDS011;27468;47.460;19.034;2023-01-31T00:56:11;3.87;;;2.37;;
41799;SDS011;27468;47.460;19.034;2023-01-31T00:58:39;3.67;;;2.00;;
41799;SDS011;27468;47.460;19.034;2023-01-31T01:01:15;3.63;;;1.63;;
41799;SDS011;27468;47.460;19.034;2023-01-31T01:03:42;3.13;;;1.80;;
41799;SDS011;27468;47.460;19.034;2023-01-31T01:06:09;2.60;;;1.60;;
41799;SDS011;27468;47.460;19.034;2023-01-31T01:08:36;2.03;;;1.20;;
41799;SDS011;27468;47.460;19.034;2023-01-31T01:11:10;2.67;;;1.53;;
41799;SDS011;27468;47.460;19.034;2023-01-31T01:13:38;2.80;;;1.13;;
41799;SDS011;27468;47.460;19.034;2023-01-31T01:16:07;3.37;;;1.30;;
41799;SDS011;27468;47.460;19.034;2023-01-31T01:18:37;2.23;;;1.20;;
41799;SDS011;27468;47.460;19.034;2023-01-31T01:21:04;2.63;;;1.50;;
41799;SDS011;27468;47.460;19.034;2023-01-31T01:23:33;3.33;;;1.37;;
41799;SDS011;27468;47.460;19.034;2023-01-31T01:25:59;1.67;;;0.90;;
41799;SDS011;27468;47.460;19.034;2023-01-31T01:28:24;2.73;;;1.57;;
41799;SDS011;27468;47.460;19.034;2023-01-31T01:30:50;2.77;;;1.40;;
41799;SDS011;27468;47.460;19.034;2023-01-31T01:33:15;1.40;;;0.80;;
41799;SDS011;27468;47.460;19.034;2023-01-31T01:35:41;1.53;;;1.00;;
41799;SDS011;27468;47.460;19.034;2023-01-31T01:38:06;2.00;;;0.93;;
41799;SDS011;27468;47.460;19.034;2023-01-31T01:40:35;1.67;;;0.87;;
41799;SDS011;27468;47.460;19.034;2023-01-31T01:43:01;4.53;;;1.20;;
41799;SDS011;27468;47.460;19.034;2023-01-31T01:45:26;1.30;;;0.80;;
41799;SDS011;27468;47.460;19.034;2023-01-31T01:47:53;1.00;;;0.90;;
41799;SDS011;27468;47.460;19.034;2023-01-31T01:50:29;1.60;;;1.00;;
41799;SDS011;27468;47.460;19.034;2023-01-31T01:53:05;1.97;;;1.00;;
41799;SDS011;27468;47.460;19.034;2023-01-31T01:55:40;4.07;;;1.30;;
41799;SDS011;27468;47.460;19.034;2023-01-31T01:58:17;1.87;;;0.97;;
41799;SDS011;27468;47.460;19.034;2023-01-31T02:00:47;1.80;;;0.90;;
41799;SDS011;27468;47.460;19.034;2023-01-31T02:03:14;2.33;;;1.27;;
41799;SDS011;27468;47.460;19.034;2023-01-31T02:08:11;3.23;;;1.20;;
41799;SDS011;27468;47.460;19.034;2023-01-31T02:10:41;3.33;;;1.00;;
41799;SDS011;27468;47.460;19.034;2023-01-31T02:13:12;2.80;;;1.30;;
41799;SDS011;27468;47.460;19.034;2023-01-31T02:15:39;1.33;;;0.93;;
41799;SDS011;27468;47.460;19.034;2023-01-31T02:18:05;3.20;;;1.13;;
41799;SDS011;27468;47.460;19.034;2023-01-31T02:29:12;1.90;;;0.90;;
41799;SDS011;27468;47.460;19.034;2023-01-31T02:37:49;1.87;;;0.50;;
41799;SDS011;27468;47.460;19.034;2023-01-31T02:40:30;1.73;;;0.93;;
41799;SDS011;27468;47.460;19.034;2023-01-31T02:46:06;2.27;;;0.60;;
41799;SDS011;27468;47.460;19.034;2023-01-31T02:48:57;3.10;;;1.30;;
41799;SDS011;27468;47.460;19.034;2023-01-31T02:51:36;2.20;;;0.60;;
41799;SDS011;27468;47.460;19.034;2023-01-31T02:54:29;6.10;;;1.00;;
41799;SDS011;27468;47.460;19.034;2023-01-31T02:57:17;4.00;;;1.57;;
41799;SDS011;27468;47.460;19.034;2023-01-31T02:59:43;4.77;;;1.63;;
41799;SDS011;27468;47.460;19.034;2023-01-31T03:02:09;4.67;;;1.13;;
41799;SDS011;27468;47.460;19.034;2023-01-31T03:04:36;3.63;;;0.90;;
41799;SDS011;27468;47.460;19.034;2023-01-31T03:07:04;3.97;;;1.40;;
41799;SDS011;27468;47.460;19.034;2023-01-31T03:15:49;2.90;;;0.90;;
41799;SDS011;27468;47.460;19.034;2023-01-31T03:21:16;1.53;;;0.67;;
41799;SDS011;27468;47.460;19.034;2023-01-31T03:23:49;3.43;;;1.07;;
41799;SDS011;27468;47.460;19.034;2023-01-31T03:26:17;1.43;;;1.10;;
41799;SDS011;27468;47.460;19.034;2023-01-31T03:28:46;3.90;;;1.13;;
41799;SDS011;27468;47.460;19.034;2023-01-31T03:33:47;3.40;;;1.23;;
41799;SDS011;27468;47.460;19.034;2023-01-31T03:45:08;2.30;;;0.67;;
41799;SDS011;27468;47.460;19.034;2023-01-31T03:47:40;3.40;;;0.93;;
41799;SDS011;27468;47.460;19.034;2023-01-31T03:50:13;2.23;;;0.53;;
41799;SDS011;27468;47.460;19.034;2023-01-31T03:52:49;4.23;;;1.63;;
41799;SDS011;27468;47.460;19.034;2023-01-31T03:55:36;3.25;;;0.82;;
41799;SDS011;27468;47.460;19.034;2023-01-31T04:00:35;5.10;;;0.73;;
41799;SDS011;27468;47.460;19.034;2023-01-31T04:03:13;4.53;;;0.90;;
41799;SDS011;27468;47.460;19.034;2023-01-31T04:05:46;2.17;;;0.80;;
41799;SDS011;27468;47.460;19.034;2023-01-31T04:08:15;3.37;;;1.40;;
41799;SDS011;27468;47.460;19.034;2023-01-31T04:10:40;2.00;;;1.17;;
41799;SDS011;27468;47.460;19.034;2023-01-31T04:13:06;1.63;;;0.77;;
41799;SDS011;27468;47.460;19.034;2023-01-31T04:15:32;1.57;;;0.50;;
41799;SDS011;27468;47.460;19.034;2023-01-31T04:17:57;1.20;;;0.73;;
41799;SDS011;27468;47.460;19.034;2023-01-31T04:20:23;2.00;;;1.20;;
41799;SDS011;27468;47.460;19.034;2023-01-31T04:22:49;4.57;;;1.10;;
41799;SDS011;27468;47.460;19.034;2023-01-31T04:25:14;1.00;;;0.40;;
41799;SDS011;27468;47.460;19.034;2023-01-31T04:27:40;2.60;;;1.03;;
41799;SDS011;27468;47.460;19.034;2023-01-31T04:30:05;6.53;;;1.33;;
41799;SDS011;27468;47.460;19.034;2023-01-31T04:32:31;1.77;;;0.70;;
41799;SDS011;27468;47.460;19.034;2023-01-31T04:34:57;1.83;;;0.90;;
41799;SDS011;27468;47.460;19.034;2023-01-31T04:37:22;1.30;;;0.60;;
41799;SDS011;27468;47.460;19.034;2023-01-31T04:39:48;0.97;;;0.50;;
41799;SDS011;27468;47.460;19.034;2023-01-31T04:42:14;2.77;;;1.30;;
41799;SDS011;27468;47.460;19.034;2023-01-31T04:44:39;1.90;;;0.53;;
41799;SDS011;27468;47.460;19.034;2023-01-31T04:47:04;1.13;;;0.70;;
41799;SDS011;27468;47.460;19.034;2023-01-31T04:49:30;4.20;;;1.03;;
41799;SDS011;27468;47.460;19.034;2023-01-31T04:51:55;1.90;;;0.80;;
41799;SDS011;27468;47.460;19.034;2023-01-31T04:54:21;3.20;;;0.97;;
41799;SDS011;27468;47.460;19.034;2023-01-31T04:56:46;1.90;;;0.63;;
41799;SDS011;27468;47.460;19.034;2023-01-31T04:59:11;1.70;;;0.90;;
41799;SDS011;27468;47.460;19.034;2023-01-31T05:01:37;2.53;;;0.80;;
41799;SDS011;27468;47.460;19.034;2023-01-31T05:04:02;1.93;;;0.90;;
41799;SDS011;27468;47.460;19.034;2023-01-31T05:06:28;3.07;;;1.00;;
41799;SDS011;27468;47.460;19.034;2023-01-31T05:08:53;3.93;;;1.23;;
41799;SDS011;27468;47.460;19.034;2023-01-31T05:11:19;0.50;;;0.40;;
41799;SDS011;27468;47.460;19.034;2023-01-31T05:13:44;0.67;;;0.47;;
41799;SDS011;27468;47.460;19.034;2023-01-31T05:16:11;3.90;;;0.80;;
41799;SDS011;27468;47.460;19.034;2023-01-31T05:18:37;1.50;;;0.70;;
41799;SDS011;27468;47.460;19.034;2023-01-31T05:21:03;4.13;;;1.47;;
41799;SDS011;27468;47.460;19.034;2023-01-31T05:23:30;2.17;;;0.70;;
41799;SDS011;27468;47.460;19.034;2023-01-31T05:25:56;3.03;;;1.10;;
41799;SDS011;27468;47.460;19.034;2023-01-31T05:28:22;2.47;;;0.80;;
41799;SDS011;27468;47.460;19.034;2023-01-31T05:30:49;3.03;;;0.90;;
41799;SDS011;27468;47.460;19.034;2023-01-31T05:33:15;2.63;;;0.90;;
41799;SDS011;27468;47.460;19.034;2023-01-31T05:35:40;4.70;;;1.17;;
41799;SDS011;27468;47.460;19.034;2023-01-31T05:38:06;1.33;;;0.60;;
41799;SDS011;27468;47.460;19.034;2023-01-31T05:40:33;2.27;;;0.80;;
41799;SDS011;27468;47.460;19.034;2023-01-31T05:42:59;3.17;;;1.40;;
41799;SDS011;27468;47.460;19.034;2023-01-31T05:45:28;2.47;;;1.00;;
41799;SDS011;27468;47.460;19.034;2023-01-31T05:47:54;2.83;;;1.00;;
41799;SDS011;27468;47.460;19.034;2023-01-31T05:50:19;3.47;;;1.00;;
41799;SDS011;27468;47.460;19.034;2023-01-31T05:52:49;3.30;;;0.73;;
41799;SDS011;27468;47.460;19.034;2023-01-31T05:55:18;5.30;;;0.80;;
41799;SDS011;27468;47.460;19.034;2023-01-31T05:57:44;3.10;;;1.23;;
41799;SDS011;27468;47.460;19.034;2023-01-31T06:00:10;2.10;;;0.80;;
41799;SDS011;27468;47.460;19.034;2023-01-31T06:02:36;1.87;;;0.77;;
41799;SDS011;27468;47.460;19.034;2023-01-31T06:05:01;2.50;;;0.93;;
41799;SDS011;27468;47.460;19.034;2023-01-31T06:07:27;3.43;;;0.87;;
41799;SDS011;27468;47.460;19.034;2023-01-31T06:09:52;2.03;;;0.80;;
41799;SDS011;27468;47.460;19.034;2023-01-31T06:12:18;2.20;;;1.00;;
41799;SDS011;27468;47.460;19.034;2023-01-31T06:14:43;4.63;;;0.77;;
41799;SDS011;27468;47.460;19.034;2023-01-31T06:17:10;3.03;;;0.67;;
41799;SDS011;27468;47.460;19.034;2023-01-31T06:19:36;2.90;;;0.80;;
41799;SDS011;27468;47.460;19.034;2023-01-31T06:22:02;2.97;;;0.70;;
41799;SDS011;27468;47.460;19.034;2023-01-31T06:24:28;2.90;;;0.77;;
41799;SDS011;27468;47.460;19.034;2023-01-31T06:26:54;1.90;;;0.90;;
41799;SDS011;27468;47.460;19.034;2023-01-31T06:29:19;2.13;;;0.80;;
41799;SDS011;27468;47.460;19.034;2023-01-31T06:31:44;2.63;;;0.70;;
41799;SDS011;27468;47.460;19.034;2023-01-31T06:34:10;1.27;;;0.50;;
41799;SDS011;27468;47.460;19.034;2023-01-31T06:36:36;2.80;;;0.67;;
41799;SDS011;27468;47.460;19.034;2023-01-31T06:39:01;2.63;;;0.70;;
41799;SDS011;27468;47.460;19.034;2023-01-31T06:41:28;2.57;;;0.50;;
41799;SDS011;27468;47.460;19.034;2023-01-31T06:43:54;2.33;;;0.70;;
41799;SDS011;27468;47.460;19.034;2023-01-31T06:46:20;3.03;;;0.67;;
41799;SDS011;27468;47.460;19.034;2023-01-31T06:48:46;3.13;;;0.73;;
41799;SDS011;27468;47.460;19.034;2023-01-31T06:51:12;3.27;;;0.70;;
41799;SDS011;27468;47.460;19.034;2023-01-31T06:53:38;2.60;;;0.60;;
41799;SDS011;27468;47.460;19.034;2023-01-31T06:56:04;3.70;;;0.60;;
41799;SDS011;27468;47.460;19.034;2023-01-31T06:58:30;2.00;;;0.50;;
41799;SDS011;27468;47.460;19.034;2023-01-31T07:01:02;3.43;;;0.63;;
41799;SDS011;27468;47.460;19.034;2023-01-31T07:03:31;3.67;;;0.80;;
41799;SDS011;27468;47.460;19.034;2023-01-31T07:05:57;6.63;;;1.10;;
41799;SDS011;27468;47.460;19.034;2023-01-31T07:08:22;2.93;;;0.90;;
41799;SDS011;27468;47.460;19.034;2023-01-31T07:10:47;2.20;;;0.47;;
41799;SDS011;27468;47.460;19.034;2023-01-31T07:13:13;1.43;;;0.43;;
41799;SDS011;27468;47.460;19.034;2023-01-31T07:15:39;2.17;;;0.57;;
41799;SDS011;27468;47.460;19.034;2023-01-31T07:18:05;3.23;;;0.50;;
41799;SDS011;27468;47.460;19.034;2023-01-31T07:20:30;1.70;;;0.37;;
41799;SDS011;27468;47.460;19.034;2023-01-31T07:22:56;3.23;;;0.60;;
41799;SDS011;27468;47.460;19.034;2023-01-31T07:25:23;2.87;;;0.50;;
41799;SDS011;27468;47.460;19.034;2023-01-31T07:27:49;1.43;;;0.40;;
41799;SDS011;27468;47.460;19.034;2023-01-31T07:30:14;1.53;;;0.40;;
41799;SDS011;27468;47.460;19.034;2023-01-31T07:32:40;2.50;;;0.53;;
41799;SDS011;27468;47.460;19.034;2023-01-31T07:35:05;2.17;;;0.40;;
41799;SDS011;27468;47.460;19.034;2023-01-31T07:37:32;3.10;;;0.67;;
41799;SDS011;27468;47.460;19.034;2023-01-31T07:39:57;0.20;;;0.20;;
41799;SDS011;27468;47.460;19.034;2023-01-31T07:42:23;2.60;;;0.60;;
41799;SDS011;27468;47.460;19.034;2023-01-31T07:44:48;1.53;;;1.33;;
41799;SDS011;27468;47.460;19.034;2023-01-31T07:47:14;2.20;;;0.70;;
41799;SDS011;27468;47.460;19.034;2023-01-31T07:49:39;1.27;;;0.50;;
41799;SDS011;27468;47.460;19.034;2023-01-31T07:52:05;2.53;;;0.60;;
41799;SDS011;27468;47.460;19.034;2023-01-31T07:54:30;2.40;;;0.67;;
41799;SDS011;27468;47.460;19.034;2023-01-31T07:56:55;1.90;;;0.70;;
41799;SDS011;27468;47.460;19.034;2023-01-31T07:59:21;2.47;;;0.43;;
41799;SDS011;27468;47.460;19.034;2023-01-31T08:01:46;3.00;;;0.40;;
41799;SDS011;27468;47.460;19.034;2023-01-31T08:04:30;1.10;;;0.50;;
41799;SDS011;27468;47.460;19.034;2023-01-31T08:06:57;2.77;;;0.77;;
41799;SDS011;27468;47.460;19.034;2023-01-31T08:09:25;2.27;;;0.53;;
41799;SDS011;27468;47.460;19.034;2023-01-31T08:11:50;6.13;;;1.73;;
41799;SDS011;27468;47.460;19.034;2023-01-31T08:14:16;2.37;;;0.50;;
41799;SDS011;27468;47.460;19.034;2023-01-31T08:16:41;1.90;;;0.33;;
41799;SDS011;27468;47.460;19.034;2023-01-31T08:19:07;1.43;;;0.87;;
41799;SDS011;27468;47.460;19.034;2023-01-31T08:21:32;2.80;;;0.77;;
41799;SDS011;27468;47.460;19.034;2023-01-31T08:23:58;1.77;;;0.80;;
41799;SDS011;27468;47.460;19.034;2023-01-31T08:26:23;2.00;;;0.80;;
41799;SDS011;27468;47.460;19.034;2023-01-31T08:28:49;1.97;;;0.47;;
41799;SDS011;27468;47.460;19.034;2023-01-31T08:31:17;1.07;;;0.33;;
41799;SDS011;27468;47.460;19.034;2023-01-31T08:33:44;2.00;;;0.70;;
41799;SDS011;27468;47.460;19.034;2023-01-31T08:36:17;1.80;;;0.90;;
41799;SDS011;27468;47.460;19.034;2023-01-31T08:38:51;2.17;;;0.40;;
41799;SDS011;27468;47.460;19.034;2023-01-31T08:41:18;1.40;;;0.50;;
41799;SDS011;27468;47.460;19.034;2023-01-31T08:43:45;4.73;;;0.80;;
41799;SDS011;27468;47.460;19.034;2023-01-31T08:46:12;4.25;;;1.00;;
41799;SDS011;27468;47.460;19.034;2023-01-31T08:48:38;1.33;;;0.55;;
41799;SDS011;27468;47.460;19.034;2023-01-31T08:51:05;1.25;;;0.40;;
41799;SDS011;27468;47.460;19.034;2023-01-31T08:53:32;0.57;;;0.40;;
41799;SDS011;27468;47.460;19.034;2023-01-31T08:55:59;1.45;;;0.63;;
41799;SDS011;27468;47.460;19.034;2023-01-31T08:58:25;2.08;;;0.70;;
41799;SDS011;27468;47.460;19.034;2023-01-31T09:00:51;1.13;;;0.73;;
41799;SDS011;27468;47.460;19.034;2023-01-31T09:03:17;1.88;;;0.93;;
41799;SDS011;27468;47.460;19.034;2023-01-31T09:05:42;1.25;;;0.73;;
41799;SDS011;27468;47.460;19.034;2023-01-31T09:08:08;1.38;;;0.65;;
41799;SDS011;27468;47.460;19.034;2023-01-31T09:10:33;1.13;;;0.70;;
41799;SDS011;27468;47.460;19.034;2023-01-31T09:12:59;2.85;;;1.45;;
41799;SDS011;27468;47.460;19.034;2023-01-31T09:15:24;1.40;;;1.23;;
41799;SDS011;27468;47.460;19.034;2023-01-31T09:17:51;4.07;;;1.00;;
41799;SDS011;27468;47.460;19.034;2023-01-31T09:20:17;2.47;;;1.00;;
41799;SDS011;27468;47.460;19.034;2023-01-31T09:22:43;1.80;;;0.63;;
41799;SDS011;27468;47.460;19.034;2023-01-31T09:25:09;2.30;;;1.30;;
41799;SDS011;27468;47.460;19.034;2023-01-31T09:27:35;2.53;;;0.68;;
41799;SDS011;27468;47.460;19.034;2023-01-31T09:30:03;1.38;;;0.52;;
41799;SDS011;27468;47.460;19.034;2023-01-31T09:32:30;5.70;;;2.35;;
41799;SDS011;27468;47.460;19.034;2023-01-31T09:34:56;2.97;;;0.95;;
41799;SDS011;27468;47.460;19.034;2023-01-31T09:37:22;2.70;;;0.80;;
41799;SDS011;27468;47.460;19.034;2023-01-31T09:39:47;3.38;;;1.10;;
41799;SDS011;27468;47.460;19.034;2023-01-31T09:42:17;2.92;;;0.68;;
41799;SDS011;27468;47.460;19.034;2023-01-31T09:44:44;3.25;;;1.13;;
41799;SDS011;27468;47.460;19.034;2023-01-31T09:49:50;2.88;;;1.20;;
41799;SDS011;27468;47.460;19.034;2023-01-31T09:52:20;4.10;;;1.30;;
41799;SDS011;27468;47.460;19.034;2023-01-31T09:54:46;1.25;;;0.80;;
41799;SDS011;27468;47.460;19.034;2023-01-31T09:57:22;0.65;;;0.60;;
41799;SDS011;27468;47.460;19.034;2023-01-31T10:11:06;5.75;;;0.95;;
41799;SDS011;27468;47.460;19.034;2023-01-31T10:13:38;1.63;;;0.50;;
41799;SDS011;27468;47.460;19.034;2023-01-31T10:19:11;3.63;;;0.68;;
41799;SDS011;27468;47.460;19.034;2023-01-31T10:21:44;2.72;;;0.73;;
41799;SDS011;27468;47.460;19.034;2023-01-31T10:24:16;3.35;;;0.85;;
41799;SDS011;27468;47.460;19.034;2023-01-31T10:26:48;1.88;;;1.05;;
41799;SDS011;27468;47.460;19.034;2023-01-31T10:29:19;0.82;;;0.63;;
41799;SDS011;27468;47.460;19.034;2023-01-31T10:31:57;1.30;;;0.70;;
41799;SDS011;27468;47.460;19.034;2023-01-31T10:34:31;3.30;;;1.00;;
41799;SDS011;27468;47.460;19.034;2023-01-31T10:37:10;2.38;;;0.80;;
41799;SDS011;27468;47.460;19.034;2023-01-31T10:39:53;4.22;;;1.00;;
41799;SDS011;27468;47.460;19.034;2023-01-31T10:42:28;1.88;;;1.15;;
41799;SDS011;27468;47.460;19.034;2023-01-31T10:45:01;2.30;;;1.10;;
41799;SDS011;27468;47.460;19.034;2023-01-31T10:47:32;1.27;;;0.75;;
41799;SDS011;27468;47.460;19.034;2023-01-31T10:49:59;0.73;;;0.40;;
41799;SDS011;27468;47.460;19.034;2023-01-31T10:55:14;2.67;;;0.80;;
41799;SDS011;27468;47.460;19.034;2023-01-31T10:57:47;0.90;;;0.50;;
41799;SDS011;27468;47.460;19.034;2023-01-31T11:00:16;5.80;;;0.80;;
41799;SDS011;27468;47.460;19.034;2023-01-31T11:02:46;1.02;;;0.38;;
41799;SDS011;27468;47.460;19.034;2023-01-31T11:05:14;3.08;;;0.65;;
41799;SDS011;27468;47.460;19.034;2023-01-31T11:07:43;0.60;;;0.50;;
41799;SDS011;27468;47.460;19.034;2023-01-31T11:10:28;2.67;;;0.60;;
41799;SDS011;27468;47.460;19.034;2023-01-31T11:13:01;0.60;;;0.60;;
41799;SDS011;27468;47.460;19.034;2023-01-31T11:15:37;0.35;;;0.25;;
41799;SDS011;27468;47.460;19.034;2023-01-31T11:18:06;0.95;;;0.30;;
41799;SDS011;27468;47.460;19.034;2023-01-31T11:20:45;1.67;;;0.73;;
41799;SDS011;27468;47.460;19.034;2023-01-31T11:23:16;1.60;;;0.75;;
41799;SDS011;27468;47.460;19.034;2023-01-31T11:25:48;1.30;;;0.30;;
41799;SDS011;27468;47.460;19.034;2023-01-31T11:28:18;2.65;;;0.90;;
41799;SDS011;27468;47.460;19.034;2023-01-31T11:30:59;1.38;;;0.68;;
41799;SDS011;27468;47.460;19.034;2023-01-31T11:33:38;2.22;;;0.70;;
41799;SDS011;27468;47.460;19.034;2023-01-31T11:36:15;1.60;;;0.73;;
41799;SDS011;27468;47.460;19.034;2023-01-31T11:38:47;1.92;;;1.23;;
41799;SDS011;27468;47.460;19.034;2023-01-31T11:44:21;1.90;;;1.23;;
41799;SDS011;27468;47.460;19.034;2023-01-31T11:46:50;2.08;;;0.50;;
41799;SDS011;27468;47.460;19.034;2023-01-31T11:49:20;1.55;;;0.40;;
41799;SDS011;27468;47.460;19.034;2023-01-31T11:51:59;0.60;;;0.30;;
41799;SDS011;27468;47.460;19.034;2023-01-31T11:54:34;2.08;;;0.60;;
41799;SDS011;27468;47.460;19.034;2023-01-31T11:57:00;0.85;;;0.40;;
41799;SDS011;27468;47.460;19.034;2023-01-31T11:59:27;2.05;;;0.50;;
41799;SDS011;27468;47.460;19.034;2023-01-31T12:01:55;0.60;;;0.20;;
41799;SDS011;27468;47.460;19.034;2023-01-31T12:04:33;2.22;;;0.40;;
41799;SDS011;27468;47.460;19.034;2023-01-31T12:07:27;0.20;;;0.17;;
41799;SDS011;27468;47.460;19.034;2023-01-31T12:09:55;1.48;;;0.40;;
41799;SDS011;27468;47.460;19.034;2023-01-31T12:12:42;1.33;;;0.45;;
41799;SDS011;27468;47.460;19.034;2023-01-31T12:15:13;2.45;;;0.45;;
41799;SDS011;27468;47.460;19.034;2023-01-31T12:17:43;1.10;;;0.50;;
41799;SDS011;27468;47.460;19.034;2023-01-31T12:22:55;2.90;;;0.60;;
41799;SDS011;27468;47.460;19.034;2023-01-31T12:25:27;0.93;;;0.40;;
41799;SDS011;27468;47.460;19.034;2023-01-31T12:31:04;1.30;;;0.50;;
41799;SDS011;27468;47.460;19.034;2023-01-31T12:39:34;2.63;;;0.50;;
41799;SDS011;27468;47.460;19.034;2023-01-31T12:42:10;1.45;;;0.60;;
41799;SDS011;27468;47.460;19.034;2023-01-31T12:47:47;1.42;;;0.45;;
41799;SDS011;27468;47.460;19.034;2023-01-31T12:50:51;2.40;;;0.70;;
41799;SDS011;27468;47.460;19.034;2023-01-31T12:53:30;3.22;;;1.17;;
41799;SDS011;27468;47.460;19.034;2023-01-31T13:01:47;2.20;;;0.70;;
41799;SDS011;27468;47.460;19.034;2023-01-31T13:07:55;2.40;;;0.47;;
41799;SDS011;27468;47.460;19.034;2023-01-31T13:13:24;1.90;;;0.85;;
41799;SDS011;27468;47.460;19.034;2023-01-31T13:18:29;2.35;;;0.65;;
41799;SDS011;27468;47.460;19.034;2023-01-31T13:20:59;2.25;;;0.63;;
41799;SDS011;27468;47.460;19.034;2023-01-31T13:23:31;2.13;;;0.90;;
41799;SDS011;27468;47.460;19.034;2023-01-31T13:26:07;1.30;;;0.80;;
41799;SDS011;27468;47.460;19.034;2023-01-31T13:28:39;2.83;;;1.20;;
41799;SDS011;27468;47.460;19.034;2023-01-31T13:31:14;2.78;;;1.00;;
41799;SDS011;27468;47.460;19.034;2023-01-31T13:33:53;2.20;;;1.20;;
41799;SDS011;27468;47.460;19.034;2023-01-31T13:36:41;2.50;;;1.05;;
41799;SDS011;27468;47.460;19.034;2023-01-31T13:42:13;3.13;;;1.00;;
41799;SDS011;27468;47.460;19.034;2023-01-31T13:44:40;4.88;;;1.15;;
41799;SDS011;27468;47.460;19.034;2023-01-31T13:47:13;1.90;;;0.80;;
41799;SDS011;27468;47.460;19.034;2023-01-31T13:49:56;1.75;;;0.68;;
41799;SDS011;27468;47.460;19.034;2023-01-31T13:52:31;1.00;;;0.50;;
41799;SDS011;27468;47.460;19.034;2023-01-31T13:55:00;1.95;;;0.60;;
41799;SDS011;27468;47.460;19.034;2023-01-31T14:00:09;1.77;;;0.90;;
41799;SDS011;27468;47.460;19.034;2023-01-31T14:03:13;2.80;;;1.23;;
41799;SDS011;27468;47.460;19.034;2023-01-31T14:11:00;1.38;;;0.77;;
41799;SDS011;27468;47.460;19.034;2023-01-31T14:15:58;3.40;;;1.10;;
41799;SDS011;27468;47.460;19.034;2023-01-31T14:18:43;3.28;;;1.13;;
41799;SDS011;27468;47.460;19.034;2023-01-31T14:23:53;2.10;;;1.05;;
41799;SDS011;27468;47.460;19.034;2023-01-31T14:26:33;1.48;;;0.90;;
41799;SDS011;27468;47.460;19.034;2023-01-31T14:29:15;2.95;;;1.00;;
41799;SDS011;27468;47.460;19.034;2023-01-31T14:31:43;1.67;;;0.93;;
41799;SDS011;27468;47.460;19.034;2023-01-31T14:34:24;1.50;;;0.75;;
41799;SDS011;27468;47.460;19.034;2023-01-31T14:37:01;3.47;;;1.10;;
41799;SDS011;27468;47.460;19.034;2023-01-31T14:42:49;2.53;;;0.98;;
41799;SDS011;27468;47.460;19.034;2023-01-31T14:58:50;2.85;;;1.20;;
41799;SDS011;27468;47.460;19.034;2023-01-31T15:01:17;3.10;;;0.90;;
41799;SDS011;27468;47.460;19.034;2023-01-31T15:03:49;4.05;;;1.20;;
41799;SDS011;27468;47.460;19.034;2023-01-31T15:09:37;3.58;;;1.10;;
41799;SDS011;27468;47.460;19.034;2023-01-31T15:11:43;3.05;;;1.13;;
41799;SDS011;27468;47.460;19.034;2023-01-31T15:17:02;1.42;;;0.80;;
41799;SDS011;27468;47.460;19.034;2023-01-31T15:19:44;1.20;;;0.73;;
41799;SDS011;27468;47.460;19.034;2023-01-31T15:22:12;2.65;;;1.35;;
41799;SDS011;27468;47.460;19.034;2023-01-31T15:24:46;3.22;;;1.52;;
41799;SDS011;27468;47.460;19.034;2023-01-31T15:27:33;4.18;;;1.30;;
41799;SDS011;27468;47.460;19.034;2023-01-31T15:32:50;1.50;;;1.00;;
41799;SDS011;27468;47.460;19.034;2023-01-31T15:38:32;1.63;;;0.90;;
41799;SDS011;27468;47.460;19.034;2023-01-31T15:43:49;6.10;;;1.70;;
41799;SDS011;27468;47.460;19.034;2023-01-31T15:48:47;4.55;;;1.75;;
41799;SDS011;27468;47.460;19.034;2023-01-31T15:51:13;3.78;;;1.70;;
41799;SDS011;27468;47.460;19.034;2023-01-31T15:53:39;3.60;;;1.40;;
41799;SDS011;27468;47.460;19.034;2023-01-31T15:56:06;5.57;;;1.27;;
41799;SDS011;27468;47.460;19.034;2023-01-31T15:58:39;6.18;;;2.10;;
41799;SDS011;27468;47.460;19.034;2023-01-31T16:01:11;2.88;;;1.77;;
41799;SDS011;27468;47.460;19.034;2023-01-31T16:03:40;3.53;;;1.70;;
41799;SDS011;27468;47.460;19.034;2023-01-31T16:08:58;3.47;;;1.73;;
41799;SDS011;27468;47.460;19.034;2023-01-31T16:11:26;3.80;;;1.60;;
41799;SDS011;27468;47.460;19.034;2023-01-31T16:13:55;4.97;;;1.45;;
41799;SDS011;27468;47.460;19.034;2023-01-31T16:16:22;3.15;;;1.42;;
41799;SDS011;27468;47.460;19.034;2023-01-31T16:18:49;3.38;;;2.25;;
41799;SDS011;27468;47.460;19.034;2023-01-31T16:24:06;4.88;;;2.22;;
41799;SDS011;27468;47.460;19.034;2023-01-31T16:26:33;3.20;;;1.60;;
41799;SDS011;27468;47.460;19.034;2023-01-31T16:29:07;3.78;;;1.52;;
41799;SDS011;27468;47.460;19.034;2023-01-31T16:31:50;4.78;;;1.20;;
41799;SDS011;27468;47.460;19.034;2023-01-31T16:34:22;4.53;;;2.40;;
41799;SDS011;27468;47.460;19.034;2023-01-31T16:44:45;4.28;;;1.95;;
41799;SDS011;27468;47.460;19.034;2023-01-31T16:50:17;3.88;;;1.70;;
41799;SDS011;27468;47.460;19.034;2023-01-31T16:52:49;4.28;;;1.95;;
41799;SDS011;27468;47.460;19.034;2023-01-31T16:55:16;5.15;;;1.75;;
41799;SDS011;27468;47.460;19.034;2023-01-31T16:57:45;3.75;;;1.67;;
41799;SDS011;27468;47.460;19.034;2023-01-31T17:00:32;5.85;;;2.08;;
41799;SDS011;27468;47.460;19.034;2023-01-31T17:02:58;5.40;;;1.88;;
41799;SDS011;27468;47.460;19.034;2023-01-31T17:05:26;6.20;;;1.90;;
41799;SDS011;27468;47.460;19.034;2023-01-31T17:08:03;5.95;;;2.70;;
41799;SDS011;27468;47.460;19.034;2023-01-31T17:10:30;5.40;;;2.63;;
41799;SDS011;27468;47.460;19.034;2023-01-31T17:13:05;6.57;;;2.70;;
41799;SDS011;27468;47.460;19.034;2023-01-31T17:15:38;4.72;;;2.05;;
41799;SDS011;27468;47.460;19.034;2023-01-31T17:18:04;6.72;;;2.65;;
41799;SDS011;27468;47.460;19.034;2023-01-31T17:20:30;7.70;;;2.70;;
41799;SDS011;27468;47.460;19.034;2023-01-31T17:22:55;6.50;;;2.58;;
41799;SDS011;27468;47.460;19.034;2023-01-31T17:25:22;5.60;;;2.72;;
41799;SDS011;27468;47.460;19.034;2023-01-31T17:27:49;6.40;;;2.67;;